• Join FlightAware (Why Join?)
  • Login
  • US Flag 
07:47PM EDT


 

Airport Tracker/Info


-or-


 

Live Flight TrackerFlight Track Log ✈ KAP29 ✈ 13-Jun-2013 ✈ KSLK - KBOS

Flight Track Log - Related Links

Times and Time Zones

All times are in EDT time to prevent confusion due to time zone crossing. See the KAP29 flight status page for this flight to view local times or setup timezone preferences in your user account.

Time Position Orientation Groundspeed Altitude Reporting Facility
EDT Latitude Longitude Course Direction KTS MPH feet Rate Location/Type
08:11AM 44.4181 -74.0997 109° East 154 177 4,000  Level Boston Center
08:12AM 44.4022 -74.0556 117° Southeast 134 154 4,800 780 Climbing Boston Center
08:13AM 44.3817 -74.0172 127° Southeast 128 147 5,600 840 Climbing Boston Center
08:14AM 44.3636 -73.9733 120° Southeast 128 147 6,500 720 Climbing Boston Center
08:15AM 44.3414 -73.9264 123° Southeast 128 147 7,100 420 Climbing Boston Center
08:16AM 44.2770 -73.9748 109° East  Level FlightAware Approximate
08:16AM 44.3189 -73.8792 124° Southeast 134 154 7,400  Level Boston Center
08:17AM 44.2967 -73.8267 121° Southeast 144 166 7,600 180 Climbing Boston Center
08:18AM 44.2744 -73.7767 122° Southeast 150 173 7,800 180 Climbing Boston Center
08:19AM 44.2519 -73.7269 122° Southeast 150 173 8,000 60 Climbing Boston Center
08:20AM 44.2278 -73.6714 121° Southeast 150 173 8,000  Level Boston Center
08:21AM 44.2033 -73.6186 123° Southeast 155 178 8,000  Level Boston Center
08:22AM 44.1767 -73.5633 124° Southeast 160 184 8,000  Level Boston Center
08:23AM 44.1522 -73.5078 122° Southeast 165 190 8,000 120 Level Boston Center
08:24AM 44.1278 -73.4581 124° Southeast 165 190 8,300 360 Climbing Boston Center
08:25AM 44.1031 -73.4028 122° Southeast 150 173 8,800 300 Climbing Boston Center
08:26AM 44.0825 -73.3592 123° Southeast 156 180 9,000 60 Climbing Boston Center
08:27AM 44.0558 -73.3039 124° Southeast 167 192 9,000  Level Boston Center
08:28AM 44.0314 -73.2544 125° Southeast 167 192 9,000  Level Boston Center
08:29AM 44.0067 -73.1964 121° Southeast 172 198 9,000  Level Boston Center
08:30AM 43.9781 -73.1383 124° Southeast 172 198 9,000  Level Boston Center
08:31AM 43.9511 -73.0803 123° Southeast 172 198 9,000  Level Boston Center
08:32AM 43.9244 -73.0222 123° Southeast 172 198 9,000  Level Boston Center
08:33AM 43.8975 -72.9672 124° Southeast 177 204 9,000  Level Boston Center
08:34AM 43.8667 -72.9036 124° Southeast 177 204 9,000  Level Boston Center
08:35AM 43.8417 -72.8458 121° Southeast 177 204 9,000  Level Boston Center
08:36AM 43.8128 -72.7911 126° Southeast 177 204 9,000  Level Boston Center
08:37AM 43.7858 -72.7333 123° Southeast 177 204 9,000  Level Boston Center
08:38AM 43.7589 -72.6758 123° Southeast 177 204 9,000  Level Boston Center
08:39AM 43.7278 -72.6097 123° Southeast 177 204 9,000  Level Boston Center
08:40AM 43.7008 -72.5492 122° Southeast 182 209 9,000  Level Boston Center
08:41AM 43.6758 -72.5033 127° Southeast 182 209 9,000  Level Boston Center
08:42AM 43.6425 -72.4314 123° Southeast 182 209 9,000  Level Boston Center
08:43AM 43.6133 -72.3714 124° Southeast 182 209 9,000  Level Boston Center
08:44AM 43.5842 -72.3139 125° Southeast 182 209 9,000  Level Boston Center
08:45AM 43.5569 -72.2567 123° Southeast 182 209 9,000  Level Boston Center
08:46AM 43.5297 -72.1967 122° Southeast 182 209 9,000  Level Boston Center
08:47AM 43.5003 -72.1394 125° Southeast 187 215 9,000  Level Boston Center
08:48AM 43.4731 -72.0797 122° Southeast 187 215 9,000  Level Boston Center
08:49AM 43.4417 -72.0197 126° Southeast 187 215 9,000  Level Boston Center
08:50AM 43.4144 -71.9769 131° Southeast 187 215 9,000  Level Boston Center
08:51AM 43.3661 -71.9117 136° Southeast 182 209 9,000  Level Boston Center
08:52AM 43.3306 -71.8636 135° Southeast 177 204 9,000  Level Boston Center
08:53AM 43.2947 -71.8153 136° Southeast 177 204 9,000  Level Boston Center
08:54AM 43.2569 -71.7644 136° Southeast 182 209 9,000  Level Boston Center
08:55AM 43.2192 -71.7164 137° Southeast 182 209 9,000  Level Boston Center
08:56AM 43.1836 -71.6683 135° Southeast 187 215 9,000  Level Boston Center
08:57AM 43.1456 -71.6178 136° Southeast 187 215 9,000  Level Boston Center
08:58AM 43.1333 -71.5833 116° Southeast 187 215 9,000 -300 Level KA90
08:59AM 43.0833 -71.5333 144° Southeast 200 230 8,600 -600 Descending KA90
09:00AM 43.0500 -71.4833 132° Southeast 208 239 7,900 -600 Descending KA90
09:01AM 43.0000 -71.4333 144° Southeast 206 237 7,500 -540 Descending KA90
09:02AM 42.9667 -71.3833 132° Southeast 202 232 6,900 -600 Descending KA90
09:03AM 42.9167 -71.3333 144° Southeast 197 227 6,400 -480 Descending KA90
09:04AM 42.8833 -71.2833 132° Southeast 194 223 6,000 -240 Descending KA90
09:05AM 42.8500 -71.2333 132° Southeast 179 206 6,000  Level KA90
09:06AM 42.8000 -71.1833 144° Southeast 175 201 6,000  Level KA90
09:07AM 42.7667 -71.1500 144° Southeast 173 199 6,000 -60 Level KA90
09:08AM 42.7333 -71.1000 132° Southeast 173 199 5,900 -300 Descending KA90
09:09AM 42.7000 -71.0667 144° Southeast 188 216 5,400 -600 Descending KA90
09:10AM 42.6500 -71.0167 144° Southeast 189 217 4,800 -660 Descending KA90
09:11AM 42.6000 -70.9667 144° Southeast 194 223 4,100 -420 Descending KA90
09:12AM 42.5667 -70.9333 144° Southeast 184 212 4,000 -120 Descending KA90
09:13AM 42.5333 -70.8833 132° Southeast 174 200 3,900 -60 Descending KA90
09:14AM 42.5000 -70.8500 144° Southeast 172 198 3,900 -420 Level KA90
09:15AM 42.4500 -70.8167 154° Southeast 181 208 3,100 -480 Descending KA90
09:16AM 42.4000 -70.8167 180° South 175 201 3,000 -60 Descending KA90
09:17AM 42.3500 -70.8167 180° South 165 190 3,000 -60 Level KA90
09:18AM 42.3333 -70.8500 236° Southwest 160 184 2,900 -660 Descending KA90
09:19AM 42.3500 -70.9167 289° West 181 208 1,700 -1,140 Descending KA90
09:20AM 42.3667 -70.9667 294° West 142 163 700 -1,020 Descending KA90
09:22AM 42.3500 -71.0000 234° Southwest  Level FlightAware Approximate